Time;durP1;ratioP1;P1;durP2;ratioP2;P2;SDS_P1;SDS_P2;PMS_P1;PMS_P2;Temp;Humidity;BMP_temperature;BMP_pressure;BME280_temperature;BME280_humidity;BME280_pressure;Samples;Min_cycle;Max_cycle;Signal;HPM_P1;HPM_P2
2022/08/20 00:00:34;;;;;;;10.75;4.95;;;18.70;99.90;;;;;;5044973;28;20143;-81
2022/08/20 00:03:04;;;;;;;9.35;3.88;;;18.80;99.90;;;;;;5066065;28;20040;-80
2022/08/20 00:05:32;;;;;;;;;;;18.80;99.90;;;;;;5045927;28;20049;-80
2022/08/20 00:07:58;;;;;;;10.82;3.78;;;18.80;99.90;;;;;;5062850;28;19920;-80
2022/08/20 00:10:25;;;;;;;11.23;4.25;;;18.70;99.90;;;;;;5064807;28;20041;-81
2022/08/20 00:12:51;;;;;;;10.00;4.00;;;18.80;99.90;;;;;;5043653;28;20049;-80
2022/08/20 00:15:24;;;;;;;10.02;4.43;;;18.80;99.90;;;;;;5063030;28;20036;-81
2022/08/20 00:17:51;;;;;;;15.57;5.75;;;18.80;99.90;;;;;;5059361;28;20040;-81
2022/08/20 00:20:19;;;;;;;10.82;4.32;;;18.70;99.90;;;;;;5064342;28;20074;-82
2022/08/20 00:22:45;;;;;;;10.00;4.63;;;18.80;99.90;;;;;;5065647;28;20348;-81
2022/08/20 00:25:12;;;;;;;8.40;5.50;;;18.80;99.90;;;;;;5037938;28;20098;-81
2022/08/20 00:27:37;;;;;;;8.05;5.13;;;18.70;99.90;;;;;;5044678;28;20402;-81
2022/08/20 00:30:09;;;;;;;18.90;6.00;;;18.80;99.90;;;;;;5062840;28;20036;-81
2022/08/20 00:32:48;;;;;;;8.43;5.05;;;18.70;99.90;;;;;;5064364;28;20036;-82
2022/08/20 00:35:16;;;;;;;7.80;5.03;;;18.60;99.90;;;;;;5064369;28;20407;-81
2022/08/20 00:37:42;;;;;;;8.93;5.97;;;18.60;99.90;;;;;;5065191;28;20036;-83
2022/08/20 00:40:10;;;;;;;11.95;6.55;;;18.60;99.90;;;;;;5046905;28;20041;-80
2022/08/20 00:42:46;;;;;;;13.25;6.85;;;18.60;99.90;;;;;;5053714;28;20090;-81
2022/08/20 00:45:13;;;;;;;12.10;5.97;;;18.60;99.90;;;;;;5027784;28;20138;-81
2022/08/20 00:47:43;;;;;;;8.68;5.00;;;18.50;99.90;;;;;;5060357;28;20032;-81
2022/08/20 00:50:11;;;;;;;15.88;5.43;;;18.40;99.90;;;;;;5065909;28;20094;-80
2022/08/20 00:52:40;;;;;;;12.07;5.60;;;18.30;99.90;;;;;;5066292;28;20057;-81
2022/08/20 00:55:07;;;;;;;9.13;5.75;;;18.40;99.90;;;;;;5065650;28;20052;-80
2022/08/20 00:57:42;;;;;;;17.30;6.72;;;18.40;99.90;;;;;;5064488;28;20091;-81
2022/08/20 01:00:15;;;;;;;9.70;6.57;;;18.30;99.90;;;;;;5064583;28;20050;-81
2022/08/20 01:02:41;;;;;;;10.02;5.72;;;18.30;99.90;;;;;;5065094;28;20100;-81
2022/08/20 01:05:08;;;;;;;18.52;6.80;;;18.30;99.90;;;;;;5064297;28;20067;-79
2022/08/20 01:07:35;;;;;;;9.15;5.68;;;18.30;99.90;;;;;;5052016;28;20407;-81
2022/08/20 01:10:10;;;;;;;15.00;7.22;;;18.30;99.90;;;;;;5062359;28;20036;-80
2022/08/20 01:12:39;;;;;;;14.38;6.50;;;18.40;99.90;;;;;;5062622;28;20463;-80
2022/08/20 01:15:10;;;;;;;9.05;5.40;;;18.30;99.90;;;;;;5055416;28;20072;-80
2022/08/20 01:17:43;;;;;;;9.27;5.80;;;18.20;99.90;;;;;;5043124;28;20052;-78
2022/08/20 01:20:36;;;;;;;14.10;6.53;;;18.30;99.90;;;;;;5061013;28;20032;-81
2022/08/20 01:23:26;;;;;;;10.82;6.15;;;18.10;99.90;;;;;;5044534;28;20048;-82
2022/08/20 01:26:16;;;;;;;15.98;6.13;;;18.20;99.90;;;;;;5062813;28;20045;-80
2022/08/20 01:28:53;;;;;;;11.82;5.82;;;18.20;99.90;;;;;;5045579;28;20065;-81
2022/08/20 01:31:22;;;;;;;12.43;5.63;;;18.20;99.90;;;;;;5052850;28;20052;-80
2022/08/20 01:33:50;;;;;;;12.80;7.13;;;18.20;99.90;;;;;;5062953;28;20037;-80
2022/08/20 01:36:22;;;;;;;9.32;6.00;;;18.10;99.90;;;;;;5062767;28;20403;-80
2022/08/20 01:38:48;;;;;;;12.63;6.18;;;18.20;99.90;;;;;;5060796;28;20364;-80
2022/08/20 01:41:13;;;;;;;14.00;6.18;;;18.10;99.90;;;;;;5063060;28;20044;-81
2022/08/20 01:43:40;;;;;;;10.00;5.72;;;18.10;99.90;;;;;;5062231;28;20064;-79
2022/08/20 01:46:08;;;;;;;13.95;5.60;;;18.00;99.90;;;;;;5053715;28;20063;-79
2022/08/20 01:48:35;;;;;;;10.43;5.75;;;18.10;99.90;;;;;;5046474;28;20399;-80
2022/08/20 01:51:10;;;;;;;10.07;6.03;;;18.00;99.90;;;;;;5061092;28;20057;-79
2022/08/20 01:53:40;;;;;;;13.73;6.38;;;18.10;99.90;;;;;;5065717;28;20055;-80
2022/08/20 01:56:13;;;;;;;19.13;7.65;;;18.00;99.90;;;;;;5044595;28;20036;-80
2022/08/20 01:58:42;;;;;;;11.63;5.10;;;17.90;99.90;;;;;;5063392;28;20127;-81
2022/08/20 02:01:28;;;;;;;9.20;5.38;;;17.90;99.90;;;;;;5061425;28;20044;-80
2022/08/20 02:03:55;;;;;;;10.98;5.60;;;18.00;99.90;;;;;;5063872;28;20040;-80
2022/08/20 02:06:28;;;;;;;13.48;5.65;;;18.00;99.90;;;;;;5059325;28;20045;-81
2022/08/20 02:08:57;;;;;;;11.10;4.75;;;17.90;99.90;;;;;;5041968;28;20181;-80
2022/08/20 02:11:23;;;;;;;8.77;4.40;;;17.80;99.90;;;;;;5049168;28;20125;-80
2022/08/20 02:13:51;;;;;;;8.07;4.68;;;17.80;99.90;;;;;;5053282;28;20494;-80
2022/08/20 02:16:30;;;;;;;11.98;3.25;;;17.80;99.90;;;;;;5042322;28;20040;-81
2022/08/20 02:18:59;;;;;;;10.07;3.80;;;17.80;99.90;;;;;;5059765;28;20048;-79
2022/08/20 02:21:28;;;;;;;6.88;3.28;;;17.70;99.90;;;;;;5062723;28;20436;-80
2022/08/20 02:23:54;;;;;;;9.38;3.45;;;17.60;99.90;;;;;;5062749;28;20133;-79
2022/08/20 02:26:21;;;;;;;9.70;2.70;;;17.60;99.90;;;;;;5065113;28;20562;-79
2022/08/20 02:28:49;;;;;;;9.80;3.35;;;17.60;99.90;;;;;;5043122;28;20084;-80
2022/08/20 02:31:20;;;;;;;16.27;4.47;;;17.60;99.90;;;;;;5061154;28;20082;-80
2022/08/20 02:33:46;;;;;;;12.57;4.20;;;17.60;99.90;;;;;;5063214;28;20033;-79
2022/08/20 02:36:14;;;;;;;8.85;3.10;;;17.60;99.90;;;;;;5061285;28;20052;-80
2022/08/20 02:38:40;;;;;;;10.70;3.42;;;17.40;99.90;;;;;;5059536;28;20036;-81
2022/08/20 02:41:07;;;;;;;4.65;2.67;;;17.40;99.90;;;;;;5041434;28;20448;-81
2022/08/20 02:43:33;;;;;;;9.55;2.83;;;17.50;99.90;;;;;;5044176;28;20050;-81
2022/08/20 02:45:59;;;;;;;12.60;2.40;;;17.40;99.90;;;;;;5059531;28;20123;-82
2022/08/20 02:48:25;;;;;;;8.90;2.38;;;17.40;99.90;;;;;;5056048;28;20049;-82
2022/08/20 02:51:04;;;;;;;9.73;3.50;;;17.40;99.90;;;;;;5061546;28;20502;-81
2022/08/20 02:53:34;;;;;;;13.15;3.30;;;17.40;99.90;;;;;;5063648;28;20127;-81
2022/08/20 02:55:59;;;;;;;9.30;3.58;;;17.40;99.90;;;;;;5062895;28;20487;-82
2022/08/20 02:58:26;;;;;;;8.48;2.70;;;17.30;99.90;;;;;;5066025;28;20037;-82
2022/08/20 03:00:51;;;;;;;6.32;2.22;;;17.30;99.90;;;;;;5044336;28;20445;-83
2022/08/20 03:03:21;;;;;;;7.75;2.85;;;17.40;99.90;;;;;;5062514;28;20082;-81
2022/08/20 03:05:48;;;;;;;7.10;2.03;;;17.40;99.90;;;;;;5064153;28;20052;-81
2022/08/20 03:08:15;;;;;;;8.63;3.65;;;17.40;99.90;;;;;;5061722;28;20095;-83
2022/08/20 03:10:43;;;;;;;12.75;2.40;;;17.40;99.90;;;;;;5061313;28;20116;-81
2022/08/20 03:13:11;;;;;;;6.93;2.92;;;17.30;99.90;;;;;;5061788;28;20068;-82
2022/08/20 03:15:39;;;;;;;12.48;3.50;;;17.40;99.90;;;;;;5055928;28;20398;-81
2022/08/20 03:18:04;;;;;;;13.20;3.15;;;17.30;99.90;;;;;;5067599;28;20105;-81
2022/08/20 03:20:30;;;;;;;9.82;2.60;;;17.30;99.90;;;;;;5068348;28;20036;-82
2022/08/20 03:22:56;;;;;;;11.57;3.00;;;17.30;99.90;;;;;;5066532;28;20067;-83
2022/08/20 03:25:23;;;;;;;9.75;2.80;;;17.30;99.90;;;;;;5064134;28;20372;-82
2022/08/20 03:27:49;;;;;;;7.95;2.65;;;17.20;99.90;;;;;;5065159;28;20044;-81
2022/08/20 03:30:18;;;;;;;10.20;3.35;;;17.20;99.90;;;;;;5067920;28;20484;-81
2022/08/20 03:32:44;;;;;;;9.60;2.80;;;17.20;99.90;;;;;;5065770;28;20118;-81
2022/08/20 03:35:12;;;;;;;12.05;2.50;;;17.20;99.90;;;;;;5065180;28;20447;-82
2022/08/20 03:37:39;;;;;;;5.57;2.22;;;17.30;99.90;;;;;;5067082;28;20040;-80
2022/08/20 03:40:08;;;;;;;9.68;3.38;;;17.20;99.90;;;;;;5066116;28;20418;-80
2022/08/20 03:42:34;;;;;;;8.43;2.95;;;17.20;99.90;;;;;;5047220;28;20118;-82
2022/08/20 03:45:00;;;;;;;11.70;1.95;;;17.10;99.90;;;;;;5044474;28;21616;-82
2022/08/20 03:47:26;;;;;;;13.55;3.22;;;17.20;99.90;;;;;;5067560;28;20044;-82
2022/08/20 03:49:56;;;;;;;10.10;2.17;;;17.20;99.90;;;;;;5043945;28;20051;-82
2022/08/20 03:52:22;;;;;;;5.93;2.95;;;17.00;99.90;;;;;;5047508;28;20136;-81
2022/08/20 03:54:48;;;;;;;7.13;2.63;;;16.90;99.90;;;;;;5063278;28;20131;-83
2022/08/20 03:57:14;;;;;;;13.55;3.95;;;16.80;99.90;;;;;;5068089;28;20115;-81
2022/08/20 03:59:41;;;;;;;9.75;3.30;;;16.80;99.90;;;;;;5062666;28;20195;-82
2022/08/20 04:02:07;;;;;;;14.18;3.75;;;16.80;99.90;;;;;;5056764;28;20048;-82
2022/08/20 04:04:33;;;;;;;8.95;1.83;;;16.80;99.90;;;;;;5063777;28;20489;-81
2022/08/20 04:06:59;;;;;;;7.25;2.20;;;16.80;99.90;;;;;;5047505;28;20086;-81
2022/08/20 04:09:24;;;;;;;9.00;2.55;;;16.90;99.90;;;;;;5064004;28;20032;-81
2022/08/20 04:11:50;;;;;;;5.75;1.77;;;16.90;99.90;;;;;;5066319;28;20048;-83
2022/08/20 04:14:16;;;;;;;9.60;2.50;;;16.80;99.90;;;;;;5059352;28;20040;-82
2022/08/20 04:16:42;;;;;;;12.70;2.38;;;16.90;99.90;;;;;;5045593;28;20051;-81
2022/08/20 04:19:07;;;;;;;10.70;3.22;;;16.90;99.90;;;;;;5048541;28;21108;-81
2022/08/20 04:21:34;;;;;;;8.45;2.55;;;16.90;99.90;;;;;;5064151;28;20059;-82
2022/08/20 04:24:03;;;;;;;14.68;4.57;;;16.90;99.90;;;;;;5062364;28;20040;-81
2022/08/20 04:26:29;;;;;;;8.23;2.95;;;16.90;99.90;;;;;;5059671;28;20090;-82
2022/08/20 04:28:55;;;;;;;16.27;4.18;;;16.90;99.90;;;;;;5048098;28;20441;-82
2022/08/20 04:31:23;;;;;;;13.13;4.15;;;16.80;99.90;;;;;;5059888;28;20535;-82
2022/08/20 04:33:49;;;;;;;7.78;2.90;;;16.80;99.90;;;;;;5041158;28;20059;-83
2022/08/20 04:36:15;;;;;;;9.80;3.67;;;16.80;99.90;;;;;;5063800;28;20036;-82
2022/08/20 04:38:40;;;;;;;6.28;1.75;;;16.80;99.90;;;;;;5057216;28;20082;-82
2022/08/20 04:41:06;;;;;;;12.00;2.42;;;16.70;99.90;;;;;;5047440;28;20060;-82
2022/08/20 04:43:34;;;;;;;7.45;1.77;;;16.80;99.90;;;;;;5062972;28;20044;-81
2022/08/20 04:46:05;;;;;;;12.05;2.72;;;16.80;99.90;;;;;;5053848;28;20033;-82
2022/08/20 04:48:31;;;;;;;8.48;1.75;;;16.80;99.90;;;;;;5066341;28;20076;-81
2022/08/20 04:50:58;;;;;;;6.70;2.10;;;16.70;99.90;;;;;;5047273;28;20051;-82
2022/08/20 04:53:25;;;;;;;6.68;1.88;;;16.60;99.90;;;;;;5017301;28;20075;-81
2022/08/20 04:55:53;;;;;;;8.40;2.28;;;16.70;99.90;;;;;;5063175;28;20062;-82
2022/08/20 04:58:39;;;;;;;10.70;2.53;;;16.60;99.90;;;;;;5065972;28;20119;-82
2022/08/20 05:01:08;;;;;;;18.23;3.25;;;16.60;99.90;;;;;;5055924;28;20170;-81
2022/08/20 05:03:36;;;;;;;10.68;3.50;;;16.50;99.90;;;;;;5029457;28;20491;-81
2022/08/20 05:06:04;;;;;;;12.00;4.65;;;16.40;99.90;;;;;;5044524;28;20129;-82
2022/08/20 05:08:32;;;;;;;10.35;2.60;;;16.40;99.90;;;;;;5031256;28;20033;-82
2022/08/20 05:10:58;;;;;;;27.35;4.30;;;16.50;99.90;;;;;;5063398;28;20088;-81
2022/08/20 05:13:24;;;;;;;7.95;2.55;;;16.40;99.90;;;;;;5059767;28;20049;-82
2022/08/20 05:15:51;;;;;;;10.80;3.28;;;16.40;99.90;;;;;;5062129;28;20270;-79
2022/08/20 05:18:20;;;;;;;9.80;3.15;;;16.30;99.90;;;;;;5064299;28;20105;-79
2022/08/20 05:20:47;;;;;;;10.23;3.20;;;16.30;99.90;;;;;;5057105;28;20438;-86
2022/08/20 05:23:15;;;;;;;14.45;3.03;;;16.20;99.90;;;;;;5063093;28;20040;-81
2022/08/20 05:25:42;;;;;;;15.05;4.57;;;16.20;99.90;;;;;;5065867;28;20036;-83
2022/08/20 05:28:11;;;;;;;16.27;3.50;;;16.20;99.90;;;;;;5063129;28;20121;-84
2022/08/20 05:30:39;;;;;;;13.15;4.53;;;16.20;99.90;;;;;;5056803;28;20035;-84
2022/08/20 05:33:06;;;;;;;8.60;3.17;;;16.10;99.90;;;;;;5061148;28;20431;-85
2022/08/20 05:35:33;;;;;;;10.10;3.03;;;16.20;99.90;;;;;;5054944;28;20392;-83
2022/08/20 05:38:00;;;;;;;10.13;2.72;;;16.20;99.90;;;;;;5063671;28;20364;-82
2022/08/20 05:40:27;;;;;;;20.70;5.32;;;16.20;99.90;;;;;;5040770;28;20094;-83
2022/08/20 05:42:53;;;;;;;7.22;3.92;;;16.30;99.90;;;;;;5056207;28;20106;-81
2022/08/20 05:45:20;;;;;;;8.82;2.90;;;16.30;99.90;;;;;;5064907;28;20040;-81
2022/08/20 05:47:47;;;;;;;10.20;4.25;;;16.50;99.90;;;;;;5061243;28;20419;-81
2022/08/20 05:50:15;;;;;;;6.80;2.53;;;16.50;99.90;;;;;;5046175;28;20056;-81
2022/08/20 05:52:41;;;;;;;10.27;3.45;;;16.70;99.90;;;;;;5028199;28;20053;-81
2022/08/20 05:55:09;;;;;;;9.00;3.55;;;16.70;99.90;;;;;;5045254;28;20349;-81
2022/08/20 05:57:36;;;;;;;7.90;3.45;;;16.80;99.90;;;;;;5066179;28;20041;-81
2022/08/20 06:00:06;;;;;;;5.85;2.65;;;16.90;99.90;;;;;;5044635;28;20045;-81
2022/08/20 06:05:18;;;;;;;11.90;2.92;;;17.00;99.90;;;;;;5060169;28;20508;-82
2022/08/20 06:07:43;;;;;;;11.30;2.80;;;17.00;99.90;;;;;;5064818;28;20050;-81
2022/08/20 06:10:09;;;;;;;12.10;3.53;;;17.10;99.90;;;;;;5058962;28;20403;-82
2022/08/20 06:12:36;;;;;;;4.97;2.30;;;17.10;99.90;;;;;;5049045;28;20037;-81
2022/08/20 06:15:03;;;;;;;14.00;3.30;;;17.10;99.90;;;;;;5045653;28;20041;-81
2022/08/20 06:17:32;;;;;;;4.90;1.40;;;17.20;99.90;;;;;;5062909;28;20402;-80
2022/08/20 06:20:00;;;;;;;11.00;3.47;;;17.30;99.90;;;;;;5066154;28;20455;-82
2022/08/20 06:22:25;;;;;;;4.88;1.77;;;17.40;99.90;;;;;;5062055;28;20071;-82
2022/08/20 06:24:51;;;;;;;16.13;3.30;;;17.50;99.90;;;;;;5047045;28;20049;-81
2022/08/20 06:27:17;;;;;;;8.10;2.10;;;17.60;99.90;;;;;;5065508;28;20037;-81
2022/08/20 06:29:43;;;;;;;9.55;2.10;;;17.70;99.90;;;;;;5065320;28;20041;-81
2022/08/20 06:32:09;;;;;;;9.80;2.35;;;17.80;99.90;;;;;;5062625;28;20044;-83
2022/08/20 06:34:35;;;;;;;15.60;2.65;;;17.80;99.90;;;;;;5068305;28;20045;-80
2022/08/20 06:37:01;;;;;;;8.07;3.25;;;17.80;99.90;;;;;;5071170;28;20091;-79
2022/08/20 06:39:30;;;;;;;5.90;2.17;;;17.90;99.90;;;;;;5040042;28;20040;-81
2022/08/20 06:41:57;;;;;;;7.18;2.47;;;17.80;99.90;;;;;;5036452;28;20048;-82
2022/08/20 06:44:23;;;;;;;14.95;3.78;;;17.90;99.90;;;;;;5053822;28;20033;-82
2022/08/20 06:46:48;;;;;;;10.07;3.20;;;17.90;99.90;;;;;;5060147;28;20125;-81
2022/08/20 06:49:14;;;;;;;16.02;4.15;;;17.90;99.90;;;;;;5054181;28;20048;-81
2022/08/20 06:51:40;;;;;;;14.95;3.53;;;17.90;99.90;;;;;;5047799;28;20128;-81
2022/08/20 06:54:05;;;;;;;7.75;2.95;;;18.00;99.90;;;;;;5071015;28;20514;-82
2022/08/20 06:56:32;;;;;;;9.20;2.22;;;18.10;99.90;;;;;;5053376;28;20044;-82
2022/08/20 06:58:58;;;;;;;7.18;1.60;;;18.20;99.90;;;;;;5047709;28;20045;-80
2022/08/20 07:01:24;;;;;;;7.88;2.25;;;18.40;99.90;;;;;;5043224;28;20122;-81
2022/08/20 07:03:49;;;;;;;4.18;1.35;;;18.40;99.90;;;;;;5065190;28;20104;-80
2022/08/20 07:06:16;;;;;;;4.93;1.00;;;18.50;99.90;;;;;;5067825;28;20075;-81
2022/08/20 07:08:42;;;;;;;9.20;1.65;;;18.50;99.90;;;;;;5069030;28;20124;-80
2022/08/20 07:11:09;;;;;;;10.82;1.30;;;19.70;99.90;;;;;;5048626;28;20048;-80
2022/08/20 07:13:36;;;;;;;5.60;1.10;;;21.50;99.90;;;;;;5051426;28;20045;-80
2022/08/20 07:16:03;;;;;;;8.27;0.85;;;22.50;99.90;;;;;;5067332;28;20045;-74
2022/08/20 07:18:29;;;;;;;8.20;1.50;;;23.50;99.90;;;;;;5046037;28;20055;-75
2022/08/20 07:20:56;;;;;;;7.15;1.02;;;24.00;99.90;;;;;;5061192;28;20045;-73
2022/08/20 07:23:22;;;;;;;8.35;1.50;;;23.20;99.90;;;;;;5068764;28;20041;-74
2022/08/20 07:25:48;;;;;;;4.75;0.90;;;21.80;99.90;;;;;;5065449;28;20054;-73
2022/08/20 07:28:17;;;;;;;7.68;1.20;;;21.20;99.90;;;;;;5066773;28;20450;-72
2022/08/20 07:33:29;;;;;;;3.08;0.73;;;20.70;99.90;;;;;;5064760;28;20481;-74
2022/08/20 07:35:57;;;;;;;7.88;2.50;;;20.70;99.90;;;;;;5053683;28;20048;-73
2022/08/20 07:38:24;;;;;;;3.42;1.67;;;20.50;99.90;;;;;;5066816;28;20123;-74
2022/08/20 07:40:52;;;;;;;4.38;0.70;;;20.60;99.90;;;;;;5050642;28;20041;-73
2022/08/20 07:43:18;;;;;;;2.83;0.98;;;20.60;99.90;;;;;;5065003;28;20128;-74
2022/08/20 07:45:44;;;;;;;8.45;1.92;;;20.50;99.90;;;;;;5066107;28;20056;-72
2022/08/20 07:48:12;;;;;;;5.80;1.08;;;20.60;99.90;;;;;;5032891;28;20482;-75
2022/08/20 07:50:40;;;;;;;6.35;3.03;;;20.80;99.90;;;;;;5065484;28;20048;-74
2022/08/20 07:53:06;;;;;;;5.05;1.42;;;20.60;99.90;;;;;;5065953;28;20099;-75
2022/08/20 07:55:32;;;;;;;8.13;1.17;;;20.80;99.90;;;;;;5069200;28;20056;-75
2022/08/20 07:58:07;;;;;;;7.25;1.10;;;20.70;99.90;;;;;;5067017;28;20106;-75
2022/08/20 08:00:33;;;;;;;5.10;1.13;;;20.70;99.90;;;;;;5065733;28;20068;-75
2022/08/20 08:02:59;;;;;;;5.85;1.33;;;20.80;99.90;;;;;;5067266;28;20071;-74
2022/08/20 08:05:24;;;;;;;6.30;1.58;;;20.90;99.90;;;;;;5051059;28;20842;-75
2022/08/20 08:07:50;;;;;;;3.72;1.38;;;20.90;99.90;;;;;;5059661;28;20036;-74
2022/08/20 08:10:20;;;;;;;4.63;0.98;;;20.90;99.90;;;;;;5048820;28;20040;-74
2022/08/20 08:12:49;;;;;;;5.72;2.25;;;20.80;99.90;;;;;;5067201;28;20403;-74
2022/08/20 08:15:21;;;;;;;5.53;1.52;;;20.90;99.90;;;;;;5061462;28;20039;-73
2022/08/20 08:17:48;;;;;;;6.15;2.28;;;20.90;99.90;;;;;;5029902;28;20098;-74
2022/08/20 08:20:14;;;;;;;5.25;1.10;;;21.10;99.90;;;;;;5064447;28;20036;-74
2022/08/20 08:22:41;;;;;;;8.70;1.60;;;21.20;99.90;;;;;;5066513;28;20090;-72
2022/08/20 08:25:10;;;;;;;21.98;1.40;;;21.10;99.90;;;;;;5062336;28;20132;-72
2022/08/20 08:27:36;;;;;;;4.25;1.13;;;21.20;99.90;;;;;;5048475;28;20051;-73
2022/08/20 08:30:03;;;;;;;7.13;1.23;;;21.10;99.90;;;;;;5045011;28;20044;-72
2022/08/20 08:32:32;;;;;;;8.23;1.30;;;21.00;99.90;;;;;;5066302;28;20044;-72
2022/08/20 08:35:06;;;;;;;5.15;0.98;;;21.20;99.90;;;;;;5066660;28;20090;-73
2022/08/20 08:37:31;;;;;;;4.10;1.30;;;21.30;99.90;;;;;;5065143;28;20051;-73
2022/08/20 08:39:57;;;;;;;4.38;0.95;;;21.30;99.90;;;;;;5065801;28;20402;-73
2022/08/20 08:42:43;;;;;;;2.90;1.30;;;21.30;99.90;;;;;;5032618;28;20040;-73
2022/08/20 08:45:11;;;;;;;6.18;1.17;;;21.20;99.90;;;;;;5045199;28;20045;-72
2022/08/20 08:47:38;;;;;;;4.68;1.10;;;21.40;99.90;;;;;;5063816;28;20048;-73
2022/08/20 08:50:06;;;;;;;6.90;3.17;;;21.50;99.90;;;;;;5059238;28;20136;-72
2022/08/20 08:52:39;;;;;;;5.30;1.20;;;21.60;99.90;;;;;;5040925;28;20045;-85
2022/08/20 08:55:10;;;;;;;5.78;1.70;;;21.50;99.90;;;;;;5064874;28;20060;-79
2022/08/20 08:57:36;;;;;;;8.52;1.50;;;21.50;99.90;;;;;;5065700;28;20116;-80
2022/08/20 09:00:09;;;;;;;5.22;1.00;;;21.40;99.90;;;;;;5045601;28;20139;-82
2022/08/20 09:02:37;;;;;;;6.20;1.60;;;21.50;99.90;;;;;;5047320;28;20052;-78
2022/08/20 09:05:13;;;;;;;5.25;1.20;;;21.70;99.90;;;;;;5064667;28;20037;-83
2022/08/20 09:07:46;;;;;;;4.88;1.08;;;21.70;99.90;;;;;;5059452;28;20036;-81
2022/08/20 09:10:13;;;;;;;5.72;1.33;;;21.50;99.90;;;;;;5062257;28;20044;-83
2022/08/20 09:12:38;;;;;;;5.45;1.08;;;21.50;99.90;;;;;;5062652;28;20492;-81
2022/08/20 09:15:05;;;;;;;7.07;1.52;;;21.60;99.90;;;;;;5038558;28;20081;-81
2022/08/20 09:17:30;;;;;;;6.47;1.27;;;21.70;99.90;;;;;;5049070;28;20048;-85
2022/08/20 09:19:56;;;;;;;5.13;1.63;;;21.30;99.90;;;;;;5060902;28;20433;-82
2022/08/20 09:22:24;;;;;;;7.18;1.30;;;21.20;99.90;;;;;;5062495;28;20474;-83
2022/08/20 09:24:50;;;;;;;8.68;2.38;;;21.20;99.90;;;;;;5061302;28;20045;-82
2022/08/20 09:27:17;;;;;;;4.43;0.85;;;21.50;99.90;;;;;;5065570;28;20048;-83
2022/08/20 09:29:43;;;;;;;10.15;1.88;;;21.60;99.90;;;;;;5043931;28;20037;-87
2022/08/20 09:32:16;;;;;;;4.13;1.25;;;21.70;99.90;;;;;;5058272;28;20482;-82
2022/08/20 09:34:44;;;;;;;7.90;1.35;;;21.50;99.90;;;;;;5062229;28;20395;-85
2022/08/20 09:37:10;;;;;;;7.93;1.60;;;21.20;99.90;;;;;;5065910;28;20072;-83
2022/08/20 09:39:37;;;;;;;5.10;1.75;;;21.30;99.90;;;;;;5064431;28;20040;-82
2022/08/20 09:42:11;;;;;;;6.25;1.15;;;21.60;99.90;;;;;;5059168;28;20051;-82
2022/08/20 09:44:38;;;;;;;3.97;1.40;;;21.90;99.90;;;;;;5062932;28;20052;-82
2022/08/20 09:47:03;;;;;;;8.85;1.35;;;22.20;99.90;;;;;;5065767;28;20059;-84
2022/08/20 09:49:29;;;;;;;4.03;0.70;;;22.20;99.90;;;;;;5065964;28;20288;-83
2022/08/20 09:51:57;;;;;;;9.52;2.15;;;21.90;99.90;;;;;;5042307;28;20048;-85
2022/08/20 09:54:26;;;;;;;10.30;1.27;;;21.70;99.90;;;;;;5055320;28;20045;-86
2022/08/20 09:56:52;;;;;;;7.30;1.50;;;21.50;99.90;;;;;;5060920;28;20457;-85
2022/08/20 09:59:18;;;;;;;10.05;1.55;;;22.00;99.90;;;;;;5046931;28;20036;-83
2022/08/20 10:01:43;;;;;;;5.75;1.88;;;22.20;99.90;;;;;;5062941;28;20101;-84
2022/08/20 10:04:09;;;;;;;5.50;1.52;;;22.20;99.90;;;;;;5065261;28;20044;-84
2022/08/20 10:06:39;;;;;;;5.78;2.00;;;21.90;99.90;;;;;;5056546;28;20053;-83
2022/08/20 10:09:05;;;;;;;8.38;2.42;;;21.60;99.90;;;;;;5054918;28;20052;-80
2022/08/20 10:11:31;;;;;;;6.90;1.75;;;21.50;99.90;;;;;;5064743;28;20047;-85
2022/08/20 10:13:57;;;;;;;4.55;1.85;;;21.90;99.90;;;;;;5060658;28;20089;-84
2022/08/20 10:16:23;;;;;;;4.43;0.77;;;22.10;99.90;;;;;;5059578;28;20036;-83
2022/08/20 10:18:49;;;;;;;6.50;2.05;;;22.40;99.90;;;;;;5066078;28;20088;-84
2022/08/20 10:21:15;;;;;;;8.73;1.85;;;22.50;99.90;;;;;;5065623;28;20060;-84
2022/08/20 10:23:41;;;;;;;4.93;1.85;;;22.60;99.90;;;;;;5062450;28;20041;-84
2022/08/20 10:26:08;;;;;;;4.57;1.63;;;22.80;99.90;;;;;;5053235;28;20456;-82
2022/08/20 10:28:34;;;;;;;7.10;1.30;;;22.50;99.90;;;;;;5050150;28;20040;-83
2022/08/20 10:31:00;;;;;;;8.35;2.03;;;22.20;99.90;;;;;;5063897;28;20052;-84
2022/08/20 10:33:26;;;;;;;10.50;1.52;;;21.90;99.90;;;;;;5064018;28;20503;-84
2022/08/20 10:35:52;;;;;;;7.50;1.85;;;21.80;99.90;;;;;;5049002;28;20363;-86
2022/08/20 10:38:17;;;;;;;4.63;1.45;;;21.70;99.90;;;;;;5062837;28;20124;-84
2022/08/20 10:40:46;;;;;;;5.13;1.50;;;21.80;99.90;;;;;;5048035;28;20050;-84
2022/08/20 10:43:12;;;;;;;6.88;1.20;;;22.00;99.90;;;;;;5043510;28;20454;-83
2022/08/20 10:45:38;;;;;;;7.07;1.52;;;22.20;99.90;;;;;;5052623;28;20064;-84
2022/08/20 10:48:03;;;;;;;7.13;2.00;;;22.30;99.90;;;;;;5064706;28;20438;-83
2022/08/20 10:50:29;;;;;;;7.85;1.20;;;22.50;99.90;;;;;;5049063;28;20095;-82
2022/08/20 10:52:55;;;;;;;7.50;1.77;;;22.70;99.90;;;;;;5066254;28;20140;-84
2022/08/20 10:55:20;;;;;;;6.00;1.35;;;22.90;99.90;;;;;;5047540;28;20040;-84
2022/08/20 10:57:46;;;;;;;6.72;1.77;;;23.10;99.90;;;;;;5049348;28;20537;-83
2022/08/20 11:00:14;;;;;;;5.70;1.38;;;23.20;99.90;;;;;;5056025;28;20037;-83
2022/08/20 11:02:40;;;;;;;4.93;1.33;;;22.90;99.90;;;;;;5050723;28;20102;-85
2022/08/20 11:05:06;;;;;;;7.78;1.20;;;22.60;99.90;;;;;;5062391;28;20252;-84
2022/08/20 11:07:37;;;;;;;3.80;1.70;;;22.50;99.90;;;;;;5069292;28;20449;-84
2022/08/20 11:10:04;;;;;;;5.07;1.75;;;22.40;99.90;;;;;;5066525;28;20045;-85
2022/08/20 11:12:30;;;;;;;7.15;1.55;;;22.10;99.90;;;;;;5069643;28;20040;-85
2022/08/20 11:14:55;;;;;;;3.03;1.20;;;22.00;99.90;;;;;;5067108;28;20032;-86
2022/08/20 11:17:30;;;;;;;7.68;1.23;;;21.90;99.90;;;;;;5047444;28;20044;-81
2022/08/20 11:19:57;;;;;;;6.13;1.20;;;21.90;99.90;;;;;;5059471;28;20094;-83
2022/08/20 11:22:24;;;;;;;9.02;2.33;;;21.80;99.90;;;;;;5053228;28;20434;-84
2022/08/20 11:24:51;;;;;;;5.88;1.27;;;21.70;99.90;;;;;;5045343;28;20127;-82
2022/08/20 11:27:24;;;;;;;9.02;1.35;;;21.70;99.90;;;;;;5063466;28;20107;-84
2022/08/20 11:29:51;;;;;;;4.07;1.02;;;21.80;99.90;;;;;;5053469;28;20043;-85
2022/08/20 11:32:17;;;;;;;6.15;1.60;;;22.00;99.90;;;;;;5062851;28;21799;-84
2022/08/20 11:34:43;;;;;;;4.65;1.10;;;21.90;99.90;;;;;;5067481;28;20036;-83
2022/08/20 11:37:09;;;;;;;5.97;2.50;;;22.00;99.90;;;;;;5068673;28;20398;-83
2022/08/20 11:39:35;;;;;;;5.53;1.38;;;22.30;99.90;;;;;;5068674;28;20384;-81
2022/08/20 11:42:01;;;;;;;11.65;1.85;;;22.50;99.90;;;;;;5058043;28;20040;-83
2022/08/20 11:44:26;;;;;;;5.40;1.45;;;22.80;99.90;;;;;;5041546;28;20411;-83
2022/08/20 11:46:52;;;;;;;5.65;1.73;;;23.10;99.90;;;;;;5055546;28;20044;-83
2022/08/20 11:49:18;;;;;;;7.32;1.70;;;23.40;99.90;;;;;;5048548;28;20134;-82
2022/08/20 11:51:43;;;;;;;4.97;1.50;;;23.60;99.90;;;;;;5065208;28;20462;-82
2022/08/20 11:54:09;;;;;;;5.60;1.95;;;23.70;99.90;;;;;;5066971;28;20532;-84
2022/08/20 11:56:35;;;;;;;5.35;0.75;;;23.70;99.90;;;;;;5043013;28;20580;-82
2022/08/20 11:59:00;;;;;;;7.40;1.67;;;23.80;99.90;;;;;;5063295;28;20094;-81
2022/08/20 12:01:26;;;;;;;7.40;1.75;;;23.90;99.90;;;;;;5059332;28;20041;-85
2022/08/20 12:03:52;;;;;;;5.47;1.30;;;24.30;99.90;;;;;;5059299;28;20124;-84
2022/08/20 12:06:17;;;;;;;4.78;1.10;;;24.10;99.90;;;;;;5064260;28;20438;-84
2022/08/20 12:08:43;;;;;;;5.90;1.02;;;24.20;99.90;;;;;;5061233;28;20109;-83
2022/08/20 12:11:09;;;;;;;6.22;1.52;;;24.40;99.90;;;;;;5068550;28;20052;-85
2022/08/20 12:13:36;;;;;;;8.63;2.10;;;24.20;99.90;;;;;;5064944;28;20094;-80
2022/08/20 12:16:03;;;;;;;10.10;2.78;;;24.40;99.90;;;;;;5054472;28;20055;-83
2022/08/20 12:18:30;;;;;;;4.68;1.73;;;24.40;99.90;;;;;;5064786;28;20440;-84
2022/08/20 12:20:56;;;;;;;5.35;1.23;;;24.20;99.90;;;;;;5033248;28;20047;-84
2022/08/20 12:23:22;;;;;;;8.60;3.33;;;24.10;99.90;;;;;;5065417;28;20037;-85
2022/08/20 12:25:49;;;;;;;9.95;2.97;;;23.90;99.90;;;;;;5056707;28;20052;-79
2022/08/20 12:28:15;;;;;;;4.03;1.33;;;23.80;99.90;;;;;;5067944;28;20076;-82
2022/08/20 12:30:41;;;;;;;6.70;1.60;;;24.10;99.90;;;;;;5067974;28;20044;-83
2022/08/20 12:33:07;;;;;;;4.68;1.40;;;24.10;99.90;;;;;;5057839;28;20051;-82
2022/08/20 12:35:33;;;;;;;8.80;1.73;;;24.30;99.90;;;;;;5068146;28;20086;-81
2022/08/20 12:38:02;;;;;;;7.80;2.33;;;24.60;99.90;;;;;;5067015;28;20045;-82
2022/08/20 12:40:29;;;;;;;7.13;1.60;;;24.20;99.90;;;;;;5067425;28;20044;-82
2022/08/20 12:42:55;;;;;;;5.90;1.50;;;23.90;99.90;;;;;;5065043;28;20612;-79
2022/08/20 12:45:20;;;;;;;6.53;1.70;;;24.00;99.90;;;;;;5046530;28;20118;-82
2022/08/20 12:47:48;;;;;;;9.43;2.92;;;24.20;99.90;;;;;;5054970;28;20055;-81
2022/08/20 12:50:21;;;;;;;6.25;1.83;;;24.00;99.90;;;;;;5064608;28;20048;-81